createdAt,value
2019-04-07T00:01:58.343Z,99.90
2019-04-07T00:05:11.247Z,99.90
2019-04-07T00:08:06.832Z,99.90
2019-04-07T00:11:10.570Z,99.90
2019-04-07T00:14:13.904Z,99.90
2019-04-07T00:17:17.872Z,99.90
2019-04-07T00:20:21.091Z,99.90
2019-04-07T00:23:24.300Z,99.90
2019-04-07T00:26:27.900Z,99.90
2019-04-07T00:29:32.423Z,99.90
2019-04-07T00:32:35.618Z,99.90
2019-04-07T00:35:38.923Z,99.90
2019-04-07T00:38:43.782Z,99.90
2019-04-07T00:41:47.493Z,99.90
2019-04-07T00:44:50.849Z,99.90
2019-04-07T00:47:54.320Z,99.90
2019-04-07T00:50:57.757Z,99.90
2019-04-07T00:54:00.991Z,99.90
2019-04-07T00:57:04.433Z,99.90
2019-04-07T01:00:09.612Z,99.90
2019-04-07T01:03:12.994Z,99.90
2019-04-07T01:06:17.563Z,99.90
2019-04-07T01:09:20.845Z,99.90
2019-04-07T01:12:24.763Z,99.90
2019-04-07T01:15:28.133Z,99.90
2019-04-07T01:18:33.831Z,99.90
2019-04-07T01:21:37.117Z,99.90
2019-04-07T01:24:40.661Z,99.90
2019-04-07T01:27:43.981Z,99.90
2019-04-07T01:30:47.193Z,99.90
2019-04-07T01:33:50.270Z,99.90
2019-04-07T01:36:53.487Z,99.90
2019-04-07T01:39:59.221Z,99.90
2019-04-07T01:43:21.854Z,99.90
2019-04-07T01:46:44.497Z,99.90
2019-04-07T01:50:19.313Z,99.90
2019-04-07T01:53:31.045Z,99.90
2019-04-07T01:56:46.424Z,99.90
2019-04-07T02:00:21.533Z,99.90
2019-04-07T02:03:34.102Z,99.90
2019-04-07T02:06:55.451Z,99.90
2019-04-07T02:10:20.965Z,99.90
2019-04-07T02:13:32.874Z,99.90
2019-04-07T02:16:46.524Z,99.90
2019-04-07T02:20:27.988Z,99.90
2019-04-07T02:23:41.469Z,99.90
2019-04-07T02:27:05.218Z,99.90
2019-04-07T02:30:26.955Z,99.90
2019-04-07T02:33:41.470Z,99.90
2019-04-07T02:37:13.897Z,99.90
2019-04-07T02:40:48.824Z,99.90
2019-04-07T02:44:10.804Z,99.90
2019-04-07T02:47:34.094Z,99.90
2019-04-07T02:50:46.617Z,99.90
2019-04-07T02:54:07.755Z,99.90
2019-04-07T02:57:28.112Z,99.90
2019-04-07T03:00:38.015Z,99.90
2019-04-07T03:03:55.638Z,99.90
2019-04-07T03:07:05.549Z,99.90
2019-04-07T03:10:47.442Z,99.90
2019-04-07T03:14:03.850Z,99.90
2019-04-07T03:17:12.114Z,99.90
2019-04-07T03:20:40.689Z,99.90
2019-04-07T03:24:01.551Z,99.90
2019-04-07T03:27:25.915Z,99.90
2019-04-07T03:30:49.496Z,99.90
2019-04-07T03:34:27.721Z,99.90
2019-04-07T03:38:04.938Z,99.90
2019-04-07T03:41:30.674Z,99.90
2019-04-07T03:44:56.803Z,99.90
2019-04-07T03:48:10.914Z,99.90
2019-04-07T03:51:48.078Z,99.90
2019-04-07T03:54:59.962Z,99.90
2019-04-07T03:58:21.255Z,99.90
2019-04-07T04:01:43.556Z,99.90
2019-04-07T04:04:55.565Z,99.90
2019-04-07T04:08:06.063Z,99.90
2019-04-07T04:11:18.235Z,99.90
2019-04-07T04:14:31.965Z,99.90
2019-04-07T04:21:57.354Z,99.90
2019-04-07T04:25:00.921Z,99.90
2019-04-07T04:28:04.927Z,99.90
2019-04-07T04:31:08.260Z,99.90
2019-04-07T04:34:12.026Z,99.90
2019-04-07T04:37:15.359Z,99.90
2019-04-07T04:40:19.105Z,99.90
2019-04-07T04:43:23.303Z,99.90
2019-04-07T04:46:26.701Z,99.90
2019-04-07T04:49:31.577Z,99.90
2019-04-07T04:52:34.907Z,99.90
2019-04-07T04:55:38.062Z,99.90
2019-04-07T04:58:42.398Z,99.90
2019-04-07T05:01:46.022Z,99.90
2019-04-07T05:04:49.705Z,99.90
2019-04-07T05:08:00.789Z,99.90
2019-04-07T05:10:59.109Z,99.90
2019-04-07T05:14:03.798Z,99.90
2019-04-07T05:17:07.384Z,99.90
2019-04-07T05:20:10.995Z,99.90
2019-04-07T05:23:14.250Z,99.90
2019-04-07T05:26:17.443Z,99.90
2019-04-07T05:29:21.238Z,99.90
2019-04-07T05:32:26.829Z,99.90
2019-04-07T05:35:30.118Z,99.90
2019-04-07T05:38:33.349Z,99.90
2019-04-07T05:41:37.517Z,99.90
2019-04-07T05:44:40.601Z,99.90
2019-04-07T05:47:48.210Z,99.90
2019-04-07T05:50:48.846Z,99.90
2019-04-07T05:53:52.653Z,99.90
2019-04-07T05:56:58.625Z,99.90
2019-04-07T06:00:01.362Z,99.90
2019-04-07T06:03:08.227Z,99.90
2019-04-07T06:06:10.449Z,99.90
2019-04-07T06:09:17.729Z,99.90
2019-04-07T06:12:20.321Z,99.90
2019-04-07T06:15:23.580Z,99.90
2019-04-07T06:18:27.012Z,99.90
2019-04-07T06:21:32.373Z,99.90
2019-04-07T06:24:36.039Z,99.90
2019-04-07T06:27:39.416Z,99.90
2019-04-07T06:30:42.890Z,99.90
2019-04-07T06:33:46.832Z,99.90
2019-04-07T06:36:53.638Z,99.90
2019-04-07T06:39:55.780Z,99.90
2019-04-07T06:42:59.121Z,99.90
2019-04-07T06:46:24.627Z,99.90
2019-04-07T06:49:42.771Z,99.90
2019-04-07T06:53:18.890Z,99.90
2019-04-07T06:56:40.124Z,99.90
2019-04-07T07:00:08.181Z,99.90
2019-04-07T07:03:19.562Z,99.90
2019-04-07T07:06:42.230Z,99.90
2019-04-07T07:09:57.818Z,99.90
2019-04-07T07:13:28.784Z,99.90
2019-04-07T07:16:36.101Z,99.90
2019-04-07T07:19:57.369Z,99.90
2019-04-07T07:23:05.926Z,99.90
2019-04-07T07:26:09.835Z,99.90
2019-04-07T07:29:14.761Z,99.90
2019-04-07T07:32:18.089Z,99.90
2019-04-07T07:35:21.265Z,99.90
2019-04-07T07:38:24.653Z,99.90
2019-04-07T07:41:28.028Z,99.90
2019-04-07T07:44:34.337Z,99.90
2019-04-07T07:47:36.325Z,99.90
2019-04-07T07:50:40.510Z,99.90
2019-04-07T07:53:44.155Z,99.90
2019-04-07T07:56:49.899Z,99.90
2019-04-07T07:59:52.374Z,99.90
2019-04-07T08:02:55.897Z,99.90
2019-04-07T08:05:59.097Z,99.90
2019-04-07T08:09:11.163Z,99.90
2019-04-07T08:12:08.375Z,99.70
2019-04-07T08:15:11.666Z,97.70
2019-04-07T08:18:15.713Z,94.30
2019-04-07T08:21:20.402Z,93.60
2019-04-07T08:24:24.673Z,92.00
2019-04-07T08:27:31.224Z,90.50
2019-04-07T08:30:34.133Z,90.20
2019-04-07T08:33:37.454Z,86.60
2019-04-07T08:36:43.500Z,83.60
2019-04-07T08:39:45.774Z,82.20
2019-04-07T08:42:50.185Z,80.10
2019-04-07T08:45:54.634Z,78.10
2019-04-07T08:49:01.696Z,78.60
2019-04-07T08:52:09.095Z,76.40
2019-04-07T08:55:11.057Z,76.40
2019-04-07T08:58:25.117Z,73.60
2019-04-07T09:01:21.041Z,72.80
2019-04-07T09:04:25.201Z,73.40
2019-04-07T09:07:28.717Z,72.20
2019-04-07T09:10:45.150Z,70.40
2019-04-07T09:13:55.844Z,68.70
2019-04-07T09:17:08.311Z,69.20
2019-04-07T09:20:31.357Z,67.30
2019-04-07T09:24:00.306Z,68.00
2019-04-07T09:27:22.471Z,66.40
2019-04-07T09:30:32.631Z,66.50
2019-04-07T09:33:48.930Z,68.20
2019-04-07T09:37:01.045Z,67.90
2019-04-07T09:40:18.635Z,67.80
2019-04-07T09:43:39.257Z,69.50
2019-04-07T09:47:03.045Z,68.90
2019-04-07T09:50:27.839Z,67.60
2019-04-07T09:54:03.004Z,66.00
2019-04-07T09:57:21.203Z,67.10
2019-04-07T10:00:47.737Z,65.70
2019-04-07T10:04:12.099Z,64.40
2019-04-07T10:07:26.110Z,61.00
2019-04-07T10:10:47.255Z,61.70
2019-04-07T10:14:25.899Z,60.40
2019-04-07T10:17:47.233Z,60.60
2019-04-07T10:21:28.072Z,60.40
2019-04-07T10:25:02.707Z,59.90
2019-04-07T10:28:32.260Z,58.70
2019-04-07T10:32:07.747Z,57.70
2019-04-07T10:35:17.919Z,57.90
2019-04-07T10:38:39.718Z,57.70
2019-04-07T10:42:01.494Z,58.40
2019-04-07T10:45:12.009Z,57.40
2019-04-07T10:48:30.095Z,57.30
2019-04-07T10:51:45.947Z,56.00
2019-04-07T10:55:17.817Z,56.30
2019-04-07T10:58:35.045Z,55.30
2019-04-07T11:02:01.315Z,54.20
2019-04-07T11:05:22.819Z,54.40
2019-04-07T11:08:35.608Z,54.70
2019-04-07T11:11:52.347Z,54.80
2019-04-07T11:15:15.750Z,52.10
2019-04-07T11:18:31.538Z,52.00
2019-04-07T11:21:56.918Z,53.60
2019-04-07T11:25:13.007Z,54.20
2019-04-07T11:28:30.620Z,50.90
2019-04-07T11:31:41.617Z,51.00
2019-04-07T11:35:07.657Z,51.70
2019-04-07T11:38:19.826Z,50.50
2019-04-07T11:42:00.973Z,51.60
2019-04-07T11:45:56.080Z,51.40
2019-04-07T11:49:10.170Z,51.30
2019-04-07T11:52:26.396Z,50.80
2019-04-07T11:55:48.624Z,49.10
2019-04-07T11:59:18.301Z,48.40
2019-04-07T12:02:44.622Z,49.60
2019-04-07T12:06:11.612Z,50.10
2019-04-07T12:09:28.301Z,47.00
2019-04-07T12:12:59.136Z,46.80
2019-04-07T12:16:20.385Z,47.40
2019-04-07T12:19:32.138Z,47.40
2019-04-07T12:22:48.011Z,49.50
2019-04-07T12:26:05.178Z,48.70
2019-04-07T12:29:30.713Z,47.20
2019-04-07T12:32:57.655Z,47.50
2019-04-07T12:36:19.005Z,49.30
2019-04-07T12:39:51.294Z,49.10
2019-04-07T12:43:15.518Z,48.30
2019-04-07T12:46:37.664Z,47.50
2019-04-07T12:50:03.012Z,46.40
2019-04-07T12:53:26.376Z,46.70
2019-04-07T12:56:57.633Z,46.70
2019-04-07T13:00:24.141Z,46.30
2019-04-07T13:03:46.192Z,46.30
2019-04-07T13:07:17.057Z,45.80
2019-04-07T13:10:49.228Z,46.00
2019-04-07T13:14:10.642Z,47.00
2019-04-07T13:17:28.115Z,46.00
2019-04-07T13:20:36.742Z,46.30
2019-04-07T13:24:03.568Z,45.60
2019-04-07T13:27:17.122Z,45.80
2019-04-07T13:30:35.616Z,45.50
2019-04-07T13:33:45.811Z,45.40
2019-04-07T13:37:07.985Z,45.70
2019-04-07T13:40:31.658Z,45.60
2019-04-07T13:43:56.002Z,45.30
2019-04-07T13:47:28.701Z,45.60
2019-04-07T13:50:46.920Z,44.50
2019-04-07T13:54:08.418Z,44.40
2019-04-07T13:57:49.467Z,45.10
2019-04-07T14:01:23.837Z,44.70
2019-04-07T14:04:58.755Z,45.40
2019-04-07T14:13:12.682Z,44.50
2019-04-07T14:16:36.616Z,44.40
2019-04-07T14:20:02.061Z,44.20
2019-04-07T14:23:18.522Z,43.30
2019-04-07T14:26:35.649Z,43.00
2019-04-07T14:30:14.555Z,43.60
2019-04-07T14:33:39.277Z,42.40
2019-04-07T14:37:01.936Z,42.00
2019-04-07T14:40:18.853Z,42.30
2019-04-07T14:43:39.399Z,41.80
2019-04-07T14:47:08.722Z,42.00
2019-04-07T14:50:34.625Z,42.60
2019-04-07T14:53:57.304Z,42.10
2019-04-07T14:57:19.045Z,41.70
2019-04-07T15:01:03.301Z,42.20
2019-04-07T15:04:05.174Z,42.50
2019-04-07T15:07:26.512Z,42.60
2019-04-07T15:10:37.302Z,43.40
2019-04-07T15:13:40.593Z,44.00
2019-04-07T15:16:43.959Z,42.90
2019-04-07T15:19:47.418Z,44.10
2019-04-07T15:22:51.722Z,43.60
2019-04-07T15:25:54.997Z,43.30
2019-04-07T15:28:59.136Z,42.90
2019-04-07T15:32:04.946Z,43.10
2019-04-07T15:35:11.811Z,43.70
2019-04-07T15:38:13.121Z,43.30
2019-04-07T15:41:18.231Z,44.10
2019-04-07T15:44:21.492Z,43.70
2019-04-07T15:47:25.421Z,44.40
2019-04-07T15:50:30.470Z,44.20
2019-04-07T15:53:34.518Z,44.60
2019-04-07T15:56:37.978Z,45.10
2019-04-07T15:59:42.517Z,45.00
2019-04-07T16:02:49.373Z,44.90
2019-04-07T16:05:52.310Z,45.00
2019-04-07T16:08:58.825Z,45.30
2019-04-07T16:12:01.680Z,45.90
2019-04-07T16:15:05.880Z,46.80
2019-04-07T16:18:10.607Z,46.80
2019-04-07T16:21:14.314Z,47.50
2019-04-07T16:24:17.831Z,48.00
2019-04-07T16:27:21.146Z,48.60
2019-04-07T16:30:24.806Z,49.60
2019-04-07T16:33:28.145Z,50.20
2019-04-07T16:36:32.482Z,49.80
2019-04-07T16:39:36.256Z,50.90
2019-04-07T16:42:39.610Z,51.00
2019-04-07T16:45:45.611Z,51.40
2019-04-07T16:48:48.018Z,51.80
2019-04-07T16:51:51.541Z,52.50
2019-04-07T16:54:54.796Z,53.00
2019-04-07T16:58:00.998Z,54.00
2019-04-07T17:01:03.380Z,55.50
2019-04-07T17:04:06.654Z,56.30
2019-04-07T17:07:14.136Z,57.40
2019-04-07T17:10:14.983Z,58.00
2019-04-07T17:13:24.720Z,58.60
2019-04-07T17:16:25.010Z,59.10
2019-04-07T17:19:28.490Z,59.70
2019-04-07T17:22:32.593Z,60.10
2019-04-07T17:25:35.965Z,60.50
2019-04-07T17:28:44.474Z,60.80
2019-04-07T17:31:45.582Z,61.80
2019-04-07T17:34:49.760Z,62.00
2019-04-07T17:37:53.614Z,62.30
2019-04-07T17:40:57.909Z,62.70
2019-04-07T17:44:23.091Z,63.40
2019-04-07T17:47:57.226Z,64.40
2019-04-07T17:51:10.114Z,65.80
2019-04-07T17:54:33.002Z,65.90
2019-04-07T17:57:49.919Z,66.80
2019-04-07T18:01:25.029Z,67.50
2019-04-07T18:04:53.737Z,68.90
2019-04-07T18:08:20.245Z,69.40
2019-04-07T18:11:46.904Z,71.30
2019-04-07T18:15:08.855Z,73.10
2019-04-07T18:23:07.461Z,75.40
2019-04-07T18:26:23.570Z,75.50
2019-04-07T18:29:47.032Z,75.90
2019-04-07T18:33:09.810Z,76.80
2019-04-07T18:36:31.113Z,77.80
2019-04-07T18:40:02.123Z,79.00
2019-04-07T18:43:24.533Z,79.60
2019-04-07T18:46:57.177Z,80.60
2019-04-07T18:50:24.007Z,81.10
2019-04-07T18:53:48.523Z,81.80
2019-04-07T18:57:15.239Z,83.00
2019-04-07T19:01:18.311Z,83.50
2019-04-07T19:04:31.584Z,84.60
2019-04-07T19:07:54.811Z,85.90
2019-04-07T19:11:13.095Z,87.00
2019-04-07T19:14:43.496Z,88.40
2019-04-07T19:17:57.403Z,89.90
2019-04-07T19:21:18.370Z,90.80
2019-04-07T19:24:42.754Z,92.10
2019-04-07T19:28:18.854Z,93.10
2019-04-07T19:31:43.402Z,94.30
2019-04-07T19:35:04.637Z,96.10
2019-04-07T19:38:30.425Z,99.20
2019-04-07T19:41:56.342Z,99.90
2019-04-07T19:45:22.360Z,99.90
2019-04-07T19:48:43.248Z,99.90
2019-04-07T19:52:09.768Z,99.90
2019-04-07T19:55:33.212Z,99.90
2019-04-07T19:58:51.380Z,99.90
2019-04-07T20:02:05.831Z,99.90
2019-04-07T20:05:32.198Z,99.90
2019-04-07T20:08:47.034Z,99.90
2019-04-07T20:12:02.840Z,99.90
2019-04-07T20:15:22.619Z,99.90
2019-04-07T20:18:35.343Z,99.90
2019-04-07T20:22:04.727Z,99.90
2019-04-07T20:25:15.927Z,99.90
2019-04-07T20:28:36.389Z,99.90
2019-04-07T20:31:47.513Z,99.90
2019-04-07T20:34:57.666Z,99.90
2019-04-07T20:38:32.196Z,99.90
2019-04-07T20:41:58.766Z,99.90
2019-04-07T20:45:14.221Z,99.90
2019-04-07T20:48:33.855Z,99.90
2019-04-07T20:52:00.719Z,99.90
2019-04-07T20:55:21.995Z,99.90
2019-04-07T20:59:07.934Z,99.90
2019-04-07T21:02:29.219Z,99.90
2019-04-07T21:06:04.009Z,99.90
2019-04-07T21:09:18.175Z,99.90
2019-04-07T21:12:48.320Z,99.90
2019-04-07T21:16:30.042Z,99.90
2019-04-07T21:20:05.434Z,99.90
2019-04-07T21:23:25.837Z,99.90
2019-04-07T21:26:51.967Z,99.90
2019-04-07T21:30:15.126Z,99.90
2019-04-07T21:33:44.294Z,99.90
2019-04-07T21:37:22.982Z,99.90
2019-04-07T21:40:44.327Z,99.90
2019-04-07T21:44:09.441Z,99.90
2019-04-07T21:47:31.058Z,99.90
2019-04-07T21:51:00.218Z,99.90
2019-04-07T21:54:22.905Z,99.90
2019-04-07T21:57:32.293Z,99.90
2019-04-07T22:01:02.909Z,99.90
2019-04-07T22:04:10.439Z,99.90
2019-04-07T22:07:42.285Z,99.90
2019-04-07T22:10:47.893Z,99.90
2019-04-07T22:13:51.209Z,99.90
2019-04-07T22:16:54.727Z,99.90
2019-04-07T22:19:58.522Z,99.90
2019-04-07T22:23:02.868Z,99.90
2019-04-07T22:26:11.398Z,99.90
2019-04-07T22:29:12.085Z,99.90
2019-04-07T22:32:19.235Z,99.90
2019-04-07T22:35:20.994Z,99.90
2019-04-07T22:38:25.239Z,99.90
2019-04-07T22:41:28.485Z,99.90
2019-04-07T22:44:31.616Z,99.90
2019-04-07T22:47:35.737Z,99.90
2019-04-07T22:50:39.801Z,99.90
2019-04-07T22:53:43.354Z,99.90
2019-04-07T22:56:46.685Z,99.90
2019-04-07T22:59:50.414Z,99.90
2019-04-07T23:02:54.109Z,99.90
2019-04-07T23:06:52.319Z,99.90
2019-04-07T23:09:55.965Z,99.90
2019-04-07T23:12:59.418Z,99.90
2019-04-07T23:16:10.796Z,99.90
2019-04-07T23:19:07.685Z,99.90
2019-04-07T23:22:11.530Z,99.90
2019-04-07T23:25:15.501Z,99.90
2019-04-07T23:28:18.849Z,99.90
2019-04-07T23:31:22.302Z,99.90
2019-04-07T23:34:25.481Z,99.90
2019-04-07T23:37:28.697Z,99.90
2019-04-07T23:40:32.234Z,99.90
2019-04-07T23:43:35.561Z,99.90
2019-04-07T23:46:39.338Z,99.90
2019-04-07T23:49:43.628Z,99.90
2019-04-07T23:52:47.550Z,99.90
2019-04-07T23:55:50.729Z,99.90
2019-04-07T23:58:54.173Z,99.90
